Time;durP1;ratioP1;P1;durP2;ratioP2;P2;SDS_P1;SDS_P2;PMS_P1;PMS_P2;Temp;Humidity;BMP_temperature;BMP_pressure;BME280_temperature;BME280_humidity;BME280_pressure;Samples;Min_cycle;Max_cycle;Signal;HPM_P1;HPM_P2
2021/12/05 00:23:20;;;;;;;25.60;20.93;;;;;;;9.23;64.22;93881.34;5055156;28;20448;-80
2021/12/05 00:25:50;;;;;;;37.60;24.47;;;;;;;9.14;63.76;93880.78;5057745;28;20417;-80
2021/12/05 00:57:46;;;;;;;44.23;30.97;;;;;;;8.41;65.46;93872.97;5058314;28;20432;-79
2021/12/05 01:07:59;;;;;;;39.63;30.27;;;;;;;8.18;65.69;93847.28;5056419;28;20174;-79
2021/12/05 01:16:16;;;;;;;46.80;30.13;;;;;;;8.18;65.57;93849.91;5032748;28;20423;-78
2021/12/05 01:18:42;;;;;;;44.67;29.60;;;;;;;8.38;65.14;93842.06;5061829;28;20444;-78
2021/12/05 01:21:13;;;;;;;38.50;27.10;;;;;;;8.53;64.21;93839.28;5054822;28;20476;-79
2021/12/05 01:26:11;;;;;;;52.40;36.37;;;;;;;8.17;65.78;93838.66;5065721;28;20432;-78
2021/12/05 01:31:41;;;;;;;46.30;33.60;;;;;;;8.35;65.06;93822.44;5063070;28;20741;-79
2021/12/05 01:36:44;;;;;;;44.03;28.40;;;;;;;8.33;64.72;93808.81;5055812;28;20422;-79
2021/12/05 02:41:09;;;;;;;38.30;22.27;;;;;;;8.19;66.72;93838.47;5053420;28;20908;-80
2021/12/05 02:43:34;;;;;;;31.40;21.63;;;;;;;8.35;67.29;93829.47;5055213;28;20479;-79
2021/12/05 02:46:04;;;;;;;40.30;22.33;;;;;;;8.38;66.16;93823.81;5057043;28;20685;-80
2021/12/05 02:48:33;;;;;;;37.03;22.27;;;;;;;8.37;66.67;93830.84;5051424;28;20430;-80
2021/12/05 02:51:09;;;;;;;35.83;22.30;;;;;;;8.39;66.83;93834.06;5062351;28;20478;-79
2021/12/05 02:53:46;;;;;;;32.30;20.70;;;;;;;8.52;66.64;93830.69;5054895;28;20469;-80
2021/12/05 02:56:14;;;;;;;30.40;20.10;;;;;;;8.95;64.61;93825.00;5056123;28;20522;-80
2021/12/05 03:01:22;;;;;;;31.10;21.90;;;;;;;8.59;66.05;93820.22;5053658;28;20511;-80
2021/12/05 03:03:48;;;;;;;30.87;20.73;;;;;;;8.70;66.05;93830.03;5050545;28;20210;-80
2021/12/05 03:06:22;;;;;;;28.20;21.00;;;;;;;8.66;65.30;93825.44;5051391;28;20450;-82
2021/12/05 03:08:55;;;;;;;33.23;21.77;;;;;;;8.85;65.10;93832.44;5049985;28;20457;-80
2021/12/05 03:11:23;;;;;;;30.77;20.10;;;;;;;8.93;65.34;93821.78;5061091;28;20424;-80
2021/12/05 03:13:49;;;;;;;31.37;20.50;;;;;;;9.16;65.11;93823.94;5055805;28;20448;-80
2021/12/05 03:16:17;;;;;;;33.27;21.30;;;;;;;8.93;64.76;93820.97;5060226;28;21132;-80
2021/12/05 03:18:43;;;;;;;28.27;18.77;;;;;;;9.19;64.34;93817.50;5060367;28;20928;-80
2021/12/05 03:21:10;;;;;;;29.17;18.83;;;;;;;9.08;64.07;93816.31;5054834;28;20435;-80
2021/12/05 03:23:39;;;;;;;25.87;18.10;;;;;;;9.06;64.20;93815.72;5054540;28;20535;-80
2021/12/05 03:26:06;;;;;;;33.90;20.50;;;;;;;9.01;64.34;93814.75;5050338;28;20457;-80
2021/12/05 03:28:32;;;;;;;27.30;18.77;;;;;;;9.01;64.38;93812.94;5055027;28;20456;-80
2021/12/05 03:30:58;;;;;;;30.70;21.37;;;;;;;9.10;64.45;93816.91;5064959;28;20456;-81
2021/12/05 03:33:24;;;;;;;30.63;20.17;;;;;;;9.31;64.12;93817.66;5055776;28;20442;-81
2021/12/05 03:35:49;;;;;;;29.80;19.50;;;;;;;9.26;64.44;93817.47;5053366;28;20508;-81
2021/12/05 03:38:15;;;;;;;32.03;19.37;;;;;;;9.55;63.21;93814.34;5059834;28;20197;-80
2021/12/05 03:40:41;;;;;;;28.87;19.03;;;;;;;9.38;63.51;93808.00;5056078;28;20203;-80
2021/12/05 03:43:09;;;;;;;28.97;20.60;;;;;;;9.39;63.34;93814.84;5058175;28;20506;-80
2021/12/05 03:45:38;;;;;;;29.07;19.77;;;;;;;9.79;61.48;93804.19;5052282;28;20171;-80
2021/12/05 03:48:05;;;;;;;32.00;22.00;;;;;;;9.52;62.39;93804.31;5050044;28;21012;-79
2021/12/05 03:50:32;;;;;;;37.97;23.17;;;;;;;9.25;63.65;93805.44;5060022;28;20484;-80
2021/12/05 03:52:58;;;;;;;28.47;20.80;;;;;;;9.19;63.80;93807.06;5058416;28;20441;-81
2021/12/05 03:55:23;;;;;;;35.43;21.40;;;;;;;9.45;64.47;93806.16;5053071;28;20433;-80
2021/12/05 03:57:49;;;;;;;32.40;20.90;;;;;;;9.69;62.86;93803.81;5054468;28;20194;-81
2021/12/05 04:00:21;;;;;;;32.83;21.90;;;;;;;9.25;64.21;93813.25;5057306;28;20171;-80
2021/12/05 04:02:48;;;;;;;30.57;21.43;;;;;;;9.41;64.02;93817.22;5050784;28;20198;-80
2021/12/05 04:05:17;;;;;;;30.17;20.30;;;;;;;9.35;64.19;93814.44;5058930;28;20436;-79
2021/12/05 04:07:42;;;;;;;29.50;20.70;;;;;;;9.49;64.47;93809.94;5054140;28;20446;-79
2021/12/05 04:10:10;;;;;;;33.77;21.60;;;;;;;9.62;63.86;93813.50;5057321;28;20472;-79
2021/12/05 04:12:35;;;;;;;33.20;21.17;;;;;;;9.60;62.99;93825.97;5052884;28;20203;-78
2021/12/05 04:15:01;;;;;;;28.60;18.70;;;;;;;9.53;63.58;93824.19;5050679;28;20429;-78
2021/12/05 04:17:27;;;;;;;29.57;18.70;;;;;;;9.57;63.27;93816.75;5061823;28;20178;-78
2021/12/05 04:19:53;;;;;;;34.87;22.03;;;;;;;9.58;63.81;93813.13;5059525;28;20614;-78
2021/12/05 04:22:19;;;;;;;36.20;22.73;;;;;;;9.49;63.39;93809.16;5051682;28;20271;-79
2021/12/05 04:24:46;;;;;;;30.30;21.17;;;;;;;9.54;63.29;93822.38;5051070;28;20202;-78
2021/12/05 04:27:12;;;;;;;33.27;20.20;;;;;;;9.40;64.22;93818.22;5059574;28;20943;-78
2021/12/05 04:29:37;;;;;;;31.53;20.67;;;;;;;9.55;63.81;93829.22;5055607;28;20460;-78
2021/12/05 04:32:04;;;;;;;29.37;20.47;;;;;;;9.39;63.98;93825.28;5055440;28;20191;-78
2021/12/05 04:34:29;;;;;;;28.63;21.00;;;;;;;9.35;63.98;93822.28;5044221;28;20575;-78
2021/12/05 04:36:56;;;;;;;30.43;21.07;;;;;;;9.40;63.57;93821.63;5051408;28;20428;-78
2021/12/05 04:39:23;;;;;;;29.90;20.77;;;;;;;9.38;64.27;93823.66;5051479;28;20192;-78
2021/12/05 04:41:50;;;;;;;32.33;21.50;;;;;;;9.39;64.32;93822.66;5055197;28;20518;-78
2021/12/05 04:44:17;;;;;;;29.10;20.80;;;;;;;9.43;63.65;93826.47;5048722;28;20441;-78
2021/12/05 04:46:43;;;;;;;30.63;20.90;;;;;;;9.75;62.93;93832.53;5055395;28;20438;-79
2021/12/05 04:49:09;;;;;;;27.37;21.30;;;;;;;9.57;63.52;93838.44;5061834;28;20472;-78
2021/12/05 04:51:38;;;;;;;29.20;20.67;;;;;;;9.81;62.48;93837.91;5055040;28;20495;-78
2021/12/05 04:54:06;;;;;;;27.30;19.20;;;;;;;9.18;65.68;93837.59;5057394;28;20187;-78
2021/12/05 04:56:33;;;;;;;26.47;18.63;;;;;;;9.10;65.24;93848.22;5058279;28;20405;-78
2021/12/05 04:59:00;;;;;;;27.70;19.30;;;;;;;9.21;65.36;93843.41;5056483;28;20456;-78
2021/12/05 05:01:27;;;;;;;29.23;19.63;;;;;;;9.27;65.13;93853.81;5048589;28;20433;-78
2021/12/05 05:03:53;;;;;;;25.37;18.43;;;;;;;9.71;63.58;93856.66;5054076;28;20515;-78
2021/12/05 05:06:21;;;;;;;29.10;19.17;;;;;;;9.37;64.29;93858.59;5055962;28;20453;-78
2021/12/05 05:08:52;;;;;;;32.13;20.50;;;;;;;9.54;64.05;93859.75;5056255;28;21004;-78
2021/12/05 05:11:20;;;;;;;31.00;19.73;;;;;;;9.40;64.35;93855.59;5056932;28;20500;-78
2021/12/05 05:13:46;;;;;;;32.20;20.07;;;;;;;9.24;65.06;93858.63;5058942;28;20432;-78
2021/12/05 05:16:14;;;;;;;30.93;20.40;;;;;;;9.43;65.38;93863.00;5051406;28;20418;-79
2021/12/05 05:19:15;;;;;;;31.87;21.10;;;;;;;9.31;64.15;93868.06;5055301;28;20437;-79
2021/12/05 05:21:47;;;;;;;28.20;19.40;;;;;;;9.38;64.93;93860.22;5046445;28;20448;-79
2021/12/05 05:40:13;;;;;;;35.27;22.03;;;;;;;8.89;66.23;93858.94;5056865;28;20428;-79
2021/12/05 05:50:20;;;;;;;37.87;21.40;;;;;;;9.21;65.90;93861.69;5053117;28;20195;-79
2021/12/05 05:52:46;;;;;;;31.73;21.60;;;;;;;9.49;65.06;93862.19;5060044;28;20476;-79
2021/12/05 05:55:13;;;;;;;34.47;21.87;;;;;;;9.08;66.26;93839.00;5065578;28;20528;-79
2021/12/05 05:57:57;;;;;;;35.33;21.70;;;;;;;9.21;65.79;93851.22;5058474;28;20418;-78
2021/12/05 06:00:33;;;;;;;37.87;22.43;;;;;;;9.05;66.70;93840.22;5054095;28;20447;-78
2021/12/05 06:05:45;;;;;;;29.70;19.93;;;;;;;9.27;65.17;93850.41;5057653;28;20435;-79
2021/12/05 06:08:10;;;;;;;36.47;22.77;;;;;;;8.78;66.73;93861.16;5053751;28;20523;-79
2021/12/05 06:10:36;;;;;;;31.00;20.60;;;;;;;9.02;66.94;93869.34;5054570;28;20457;-79
2021/12/05 06:13:02;;;;;;;30.33;21.87;;;;;;;9.16;65.87;93868.31;5049263;28;20349;-78
2021/12/05 06:15:29;;;;;;;31.63;21.20;;;;;;;9.30;65.19;93878.72;5087490;28;20973;-79
2021/12/05 06:17:56;;;;;;;37.43;22.40;;;;;;;9.57;64.33;93871.59;5068186;28;20179;-79
2021/12/05 06:20:26;;;;;;;34.57;21.53;;;;;;;9.55;63.59;93878.84;5061307;28;20469;-78
2021/12/05 06:22:53;;;;;;;38.50;23.30;;;;;;;9.24;65.72;93879.53;5067879;28;20429;-79
2021/12/05 06:25:23;;;;;;;39.00;21.70;;;;;;;9.37;64.76;93882.09;5066679;28;20455;-79
2021/12/05 06:27:51;;;;;;;32.77;21.17;;;;;;;8.77;67.59;93890.03;5066410;28;20539;-79
2021/12/05 06:30:48;;;;;;;35.70;22.93;;;;;;;9.18;66.16;93896.81;5046514;28;20450;-79
2021/12/05 06:48:48;;;;;;;34.27;22.27;;;;;;;9.70;64.39;93920.38;5048799;28;20418;-80
2021/12/05 06:51:19;;;;;;;30.77;21.90;;;;;;;9.28;66.27;93925.13;5047493;28;20438;-80
2021/12/05 06:53:45;;;;;;;36.33;22.70;;;;;;;9.46;64.78;93932.28;5048877;28;20452;-81
2021/12/05 06:56:11;;;;;;;31.63;22.10;;;;;;;8.45;69.52;93946.41;5064565;28;20459;-81
2021/12/05 06:58:37;;;;;;;33.67;22.27;;;;;;;9.06;66.96;93945.41;5068096;28;20170;-80
2021/12/05 07:01:06;;;;;;;39.37;24.67;;;;;;;9.10;66.55;93949.22;5066963;28;20213;-80
2021/12/05 07:03:32;;;;;;;37.47;25.70;;;;;;;9.37;66.24;93942.16;5064188;28;20545;-80
2021/12/05 07:06:21;;;;;;;40.20;28.73;;;;;;;9.19;66.47;93940.97;5057335;28;20489;-80
2021/12/05 07:08:48;;;;;;;47.07;31.20;;;;;;;9.47;65.35;93942.53;5068657;28;20414;-81
2021/12/05 07:11:25;;;;;;;49.27;33.33;;;;;;;9.23;66.58;93941.38;5059469;28;20453;-80
2021/12/05 07:21:54;;;;;;;48.43;35.87;;;;;;;9.06;66.38;93946.22;5068115;28;20393;-80
2021/12/05 07:42:48;;;;;;;49.43;32.90;;;;;;;10.51;62.70;93926.84;5046909;28;20769;-80
2021/12/05 07:45:19;;;;;;;48.10;32.23;;;;;;;10.85;62.05;93924.75;5046438;28;20493;-80
2021/12/05 07:47:46;;;;;;;35.27;27.10;;;;;;;10.32;61.69;93912.84;5046429;28;20199;-80
2021/12/05 07:50:12;;;;;;;28.30;20.57;;;;;;;10.32;62.67;93913.66;5045842;28;20556;-80
2021/12/05 07:52:43;;;;;;;34.37;23.07;;;;;;;10.33;62.51;93919.69;5046307;28;20426;-80
2021/12/05 07:55:22;;;;;;;34.80;22.17;;;;;;;10.23;62.19;93920.13;5045205;28;20493;-80
2021/12/05 07:58:09;;;;;;;30.57;20.60;;;;;;;10.47;62.27;93921.22;5046658;28;20517;-80
2021/12/05 08:14:37;;;;;;;16.40;8.90;;;;;;;9.49;64.89;93924.84;5045560;28;20452;-81
2021/12/05 08:17:05;;;;;;;22.37;15.77;;;;;;;9.59;66.17;93919.19;5048504;28;20429;-80
2021/12/05 08:19:30;;;;;;;23.87;16.03;;;;;;;9.45;66.24;93933.31;5065997;28;20507;-80
2021/12/05 08:21:56;;;;;;;29.63;14.70;;;;;;;9.47;65.85;93945.16;5054487;28;20442;-79
2021/12/05 08:24:31;;;;;;;28.60;18.87;;;;;;;10.19;63.64;93939.88;5052460;28;20187;-79
2021/12/05 08:26:57;;;;;;;21.93;17.40;;;;;;;10.51;63.06;93932.06;5061962;28;20508;-80
2021/12/05 08:29:37;;;;;;;24.93;17.17;;;;;;;10.99;61.71;93933.31;5066321;28;20457;-80
2021/12/05 08:32:31;;;;;;;23.50;18.00;;;;;;;10.72;61.46;93934.31;5053070;28;20233;-80
2021/12/05 08:35:12;;;;;;;22.17;16.30;;;;;;;10.88;61.09;93945.28;5047239;28;20909;-80
2021/12/05 08:40:47;;;;;;;20.70;15.40;;;;;;;11.19;60.40;93933.94;5062075;28;20450;-80
2021/12/05 08:46:11;;;;;;;22.90;16.30;;;;;;;11.80;58.83;93924.47;5054314;28;20444;-80
2021/12/05 09:08:45;;;;;;;25.10;17.83;;;;;;;10.47;62.74;93936.09;5057754;28;20451;-80
2021/12/05 09:50:51;;;;;;;20.27;13.63;;;;;;;12.23;56.69;93834.34;5059037;28;20499;-80
2021/12/05 10:15:00;;;;;;;14.10;11.30;;;;;;;14.62;49.71;93799.22;5073580;28;20178;-80
2021/12/05 10:34:27;;;;;;;16.07;12.80;;;;;;;16.35;45.02;93780.47;5061963;28;20459;-79
2021/12/05 10:37:28;;;;;;;17.90;12.80;;;;;;;16.19;44.43;93776.91;5066583;28;20995;-78
2021/12/05 10:40:13;;;;;;;15.87;12.67;;;;;;;16.28;44.95;93768.53;5050802;28;20443;-78
2021/12/05 10:42:45;;;;;;;15.83;13.17;;;;;;;16.06;44.58;93766.75;5066869;28;22376;-79
2021/12/05 10:45:43;;;;;;;18.57;12.03;;;;;;;16.30;44.70;93766.44;5066841;28;20418;-79
2021/12/05 10:48:19;;;;;;;21.47;12.67;;;;;;;16.68;43.85;93759.34;5055069;28;20429;-79
2021/12/05 10:50:49;;;;;;;14.30;12.03;;;;;;;16.86;43.30;93748.34;5068107;28;20455;-79
2021/12/05 10:53:29;;;;;;;13.90;11.97;;;;;;;16.65;43.45;93743.97;5064908;28;20429;-79
2021/12/05 10:56:02;;;;;;;14.37;12.80;;;;;;;15.53;45.03;93747.19;5065399;28;20428;-79
2021/12/05 10:58:43;;;;;;;14.70;12.63;;;;;;;16.88;43.48;93751.53;5068397;28;20436;-79
2021/12/05 11:01:24;;;;;;;16.23;11.17;;;;;;;17.20;42.42;93734.78;5063115;28;20507;-79
2021/12/05 11:03:54;;;;;;;13.10;10.83;;;;;;;17.60;40.43;93730.69;5067154;28;20456;-79
2021/12/05 11:06:22;;;;;;;10.47;8.20;;;;;;;17.07;41.49;93722.03;5046730;28;20454;-79
2021/12/05 11:08:53;;;;;;;11.13;9.50;;;;;;;16.97;41.83;93717.50;5078490;28;20438;-80
2021/12/05 11:11:19;;;;;;;10.27;9.17;;;;;;;17.54;41.08;93727.25;5045160;28;20449;-79
2021/12/05 11:13:45;;;;;;;12.23;10.93;;;;;;;17.61;40.23;93719.06;5049001;28;20438;-79
2021/12/05 11:16:31;;;;;;;12.67;11.33;;;;;;;17.03;41.08;93713.81;5061052;28;20180;-80
2021/12/05 11:18:57;;;;;;;14.80;9.60;;;;;;;16.31;42.67;93702.81;5049144;28;21016;-79
2021/12/05 11:21:33;;;;;;;11.47;10.20;;;;;;;16.83;42.27;93701.31;5049529;28;20417;-79
2021/12/05 11:24:24;;;;;;;10.77;9.50;;;;;;;17.04;41.59;93694.28;5048880;28;20186;-79
2021/12/05 11:27:13;;;;;;;13.57;10.93;;;;;;;16.06;44.25;93700.75;5054312;28;20390;-80
2021/12/05 11:30:00;;;;;;;12.77;11.00;;;;;;;15.78;44.46;93692.09;5053272;28;20445;-79
2021/12/05 11:33:08;;;;;;;13.33;10.60;;;;;;;16.22;44.23;93690.31;5053085;28;20410;-78
2021/12/05 11:35:37;;;;;;;13.30;11.50;;;;;;;16.94;43.17;93687.13;5052571;28;20402;-80
2021/12/05 11:38:18;;;;;;;12.10;10.80;;;;;;;17.47;41.35;93673.00;5064551;28;20425;-80
2021/12/05 11:40:49;;;;;;;14.40;12.60;;;;;;;18.10;40.54;93671.00;5073522;28;20405;-80
2021/12/05 11:43:20;;;;;;;15.70;12.27;;;;;;;18.18;40.25;93668.88;5072846;28;20425;-80
2021/12/05 11:46:17;;;;;;;15.67;12.50;;;;;;;17.63;40.98;93658.75;5073951;28;20408;-80
2021/12/05 11:48:57;;;;;;;16.37;12.53;;;;;;;17.80;40.47;93655.88;5070041;28;20433;-80
2021/12/05 11:51:47;;;;;;;12.53;11.27;;;;;;;18.33;39.72;93652.97;5073617;28;20448;-80
2021/12/05 11:54:25;;;;;;;13.63;12.10;;;;;;;17.46;41.08;93655.56;5073275;28;20463;-79
2021/12/05 11:56:53;;;;;;;18.10;12.80;;;;;;;17.09;42.57;93659.13;5055820;28;20418;-79
2021/12/05 11:59:33;;;;;;;14.77;11.93;;;;;;;17.56;41.45;93656.34;5049796;28;20908;-79
2021/12/05 12:02:11;;;;;;;13.37;11.27;;;;;;;17.57;40.97;93654.50;5048424;28;20394;-79
2021/12/05 12:04:45;;;;;;;13.10;10.50;;;;;;;17.76;40.38;93649.50;5053211;28;20437;-79
2021/12/05 12:07:16;;;;;;;14.97;11.43;;;;;;;17.90;39.71;93644.50;5067163;28;20416;-79
2021/12/05 12:09:43;;;;;;;19.87;12.00;;;;;;;18.00;40.18;93633.13;5070523;28;20524;-79
2021/12/05 12:12:09;;;;;;;14.07;11.20;;;;;;;17.46;40.99;93637.03;5067566;28;20895;-78
2021/12/05 12:14:35;;;;;;;18.17;12.40;;;;;;;16.73;42.21;93635.16;5067234;28;20444;-80
2021/12/05 12:17:04;;;;;;;19.03;13.53;;;;;;;16.94;42.30;93628.97;5067646;28;20420;-81
2021/12/05 12:19:30;;;;;;;19.23;14.00;;;;;;;16.25;43.64;93627.25;5067817;28;20224;-81
2021/12/05 12:21:59;;;;;;;17.60;12.73;;;;;;;16.12;44.31;93628.50;5069776;28;20452;-80
2021/12/05 12:24:25;;;;;;;21.47;11.27;;;;;;;16.44;43.42;93629.50;5066726;28;20178;-78
2021/12/05 12:26:52;;;;;;;16.07;11.63;;;;;;;16.02;44.44;93623.16;5066844;28;20409;-80
2021/12/05 12:29:18;;;;;;;11.67;10.57;;;;;;;16.28;43.84;93618.06;5064064;28;21005;-78
2021/12/05 12:31:47;;;;;;;13.63;12.17;;;;;;;15.94;43.88;93621.00;5060291;28;20445;-78
2021/12/05 12:34:18;;;;;;;14.73;10.80;;;;;;;15.93;44.27;93624.66;5045963;28;20437;-78
2021/12/05 12:36:45;;;;;;;16.30;10.80;;;;;;;15.85;43.90;93620.66;5061941;28;20437;-78
2021/12/05 12:39:16;;;;;;;12.93;9.93;;;;;;;14.43;47.51;93629.38;5068216;28;20433;-77
2021/12/05 12:41:59;;;;;;;13.53;10.70;;;;;;;14.83;46.11;93625.69;5069617;28;20425;-78
2021/12/05 12:44:26;;;;;;;12.97;10.37;;;;;;;15.04;46.31;93616.19;5070273;28;20463;-78
2021/12/05 12:46:56;;;;;;;16.33;10.73;;;;;;;14.79;46.96;93617.50;5070280;28;20480;-78
2021/12/05 12:49:26;;;;;;;12.10;9.80;;;;;;;14.70;47.27;93613.72;5070445;28;20421;-78
2021/12/05 12:52:07;;;;;;;12.27;9.63;;;;;;;14.81;46.69;93599.59;5070814;28;20412;-78
2021/12/05 12:54:42;;;;;;;10.23;9.13;;;;;;;14.60;46.86;93603.84;5070675;28;20431;-79
2021/12/05 12:57:19;;;;;;;15.70;9.97;;;;;;;14.64;46.84;93598.88;5070323;28;20412;-79
2021/12/05 12:59:44;;;;;;;11.67;10.10;;;;;;;14.66;47.35;93598.63;5059979;28;20418;-79
2021/12/05 13:10:35;;;;;;;11.33;10.13;;;;;;;14.52;48.03;93604.25;5057110;28;20459;-79
2021/12/05 13:13:25;;;;;;;18.00;11.67;;;;;;;14.41;48.17;93597.25;5050001;28;20429;-78
2021/12/05 13:15:53;;;;;;;20.17;12.40;;;;;;;14.50;48.52;93602.91;5046363;28;20447;-79
2021/12/05 13:18:25;;;;;;;18.17;10.60;;;;;;;14.63;48.36;93598.09;5049200;28;20941;-78
2021/12/05 13:21:02;;;;;;;14.17;11.50;;;;;;;14.19;49.64;93603.28;5049112;28;20446;-78
2021/12/05 13:23:41;;;;;;;12.90;11.30;;;;;;;13.82;50.33;93603.00;5048329;28;20840;-78
2021/12/05 13:26:28;;;;;;;17.13;12.53;;;;;;;13.81;50.78;93594.34;5052772;28;20466;-79
2021/12/05 13:29:20;;;;;;;16.93;13.40;;;;;;;13.66;50.20;93596.75;5069020;28;20420;-78
2021/12/05 13:31:50;;;;;;;19.57;11.33;;;;;;;13.92;49.25;93591.84;5068866;28;20421;-79
2021/12/05 13:34:33;;;;;;;14.03;12.00;;;;;;;13.77;50.17;93587.16;5069499;28;20419;-79
2021/12/05 13:37:13;;;;;;;19.80;13.40;;;;;;;13.75;50.43;93591.84;5087150;28;20416;-79
2021/12/05 13:39:59;;;;;;;15.50;12.57;;;;;;;13.56;51.37;93588.66;5088921;28;20420;-78
2021/12/05 13:42:46;;;;;;;18.13;12.70;;;;;;;13.53;51.06;93599.69;5090526;28;20388;-78
2021/12/05 13:45:16;;;;;;;15.40;11.43;;;;;;;13.36;51.37;93604.91;5089814;28;20467;-78
2021/12/05 13:47:52;;;;;;;15.57;12.00;;;;;;;13.51;50.84;93601.72;5087717;28;20478;-78
2021/12/05 13:52:59;;;;;;;17.03;12.30;;;;;;;13.39;50.83;93594.72;5090867;28;20456;-78
2021/12/05 13:55:31;;;;;;;16.13;10.13;;;;;;;13.31;50.97;93592.47;5090532;28;20433;-78
2021/12/05 13:58:36;;;;;;;18.70;12.67;;;;;;;13.14;51.89;93596.88;5091328;28;20424;-78
2021/12/05 14:01:14;;;;;;;16.43;12.30;;;;;;;13.04;52.68;93598.28;5078600;28;20479;-78
2021/12/05 14:03:41;;;;;;;17.07;12.53;;;;;;;12.78;53.15;93594.38;5089908;28;20412;-78
2021/12/05 14:06:28;;;;;;;14.83;11.77;;;;;;;12.77;54.25;93598.06;5089586;28;20419;-78
2021/12/05 14:08:58;;;;;;;20.00;12.90;;;;;;;12.65;54.22;93603.34;5089126;28;20450;-78
2021/12/05 14:11:25;;;;;;;25.13;13.77;;;;;;;12.75;54.15;93600.13;5089064;28;20448;-77
2021/12/05 14:13:51;;;;;;;17.27;12.20;;;;;;;12.38;54.48;93597.81;5088091;28;20439;-78
2021/12/05 14:16:18;;;;;;;19.43;15.17;;;;;;;12.56;54.79;93588.19;5090260;28;20408;-78
2021/12/05 14:18:43;;;;;;;23.23;14.57;;;;;;;12.20;55.53;93598.75;5091132;28;20176;-77
2021/12/05 14:21:16;;;;;;;19.80;13.27;;;;;;;12.59;54.31;93595.59;5088928;28;20452;-78
2021/12/05 14:23:52;;;;;;;23.50;13.60;;;;;;;12.43;55.29;93597.91;5089439;28;20174;-78
2021/12/05 14:26:20;;;;;;;19.80;13.00;;;;;;;12.38;55.57;93602.25;5087627;28;20412;-78
2021/12/05 14:28:56;;;;;;;20.90;13.83;;;;;;;12.30;55.26;93588.47;5091389;28;20436;-78
2021/12/05 14:31:27;;;;;;;19.33;14.63;;;;;;;12.21;56.06;93595.09;5092270;28;20501;-78
2021/12/05 14:33:55;;;;;;;21.50;16.80;;;;;;;12.33;55.20;93591.66;5091222;28;20424;-78
2021/12/05 14:36:30;;;;;;;20.27;15.43;;;;;;;12.26;55.62;93592.59;5088206;28;20497;-78
2021/12/05 14:39:14;;;;;;;23.20;16.20;;;;;;;12.60;54.55;93590.13;5087885;28;20488;-79
2021/12/05 14:41:41;;;;;;;20.17;15.43;;;;;;;12.04;55.98;93578.47;5091073;28;20426;-79
2021/12/05 14:44:07;;;;;;;24.43;16.47;;;;;;;12.21;55.78;93570.69;5089684;28;20428;-79
2021/12/05 14:46:42;;;;;;;23.47;18.80;;;;;;;12.34;55.10;93580.16;5090217;28;20423;-79
2021/12/05 14:49:08;;;;;;;28.20;19.20;;;;;;;12.05;56.83;93590.56;5082255;28;20497;-79
2021/12/05 14:51:40;;;;;;;23.20;17.30;;;;;;;12.04;56.30;93596.81;5068891;28;20454;-79
2021/12/05 14:54:07;;;;;;;25.23;18.63;;;;;;;12.20;56.16;93603.19;5069932;28;20236;-80
2021/12/05 14:56:37;;;;;;;24.00;16.90;;;;;;;12.17;56.08;93609.69;5069694;28;20416;-79
2021/12/05 14:59:09;;;;;;;28.97;19.57;;;;;;;12.16;55.89;93613.38;5067762;28;20788;-77
2021/12/05 15:01:40;;;;;;;22.97;18.80;;;;;;;12.11;56.41;93621.91;5067210;28;20437;-80
2021/12/05 15:04:09;;;;;;;26.00;19.10;;;;;;;12.41;56.32;93612.31;5069868;28;20452;-80
2021/12/05 15:06:42;;;;;;;15.57;12.63;;;;;;;12.05;56.61;93611.56;5067703;28;20916;-80
2021/12/05 15:09:27;;;;;;;16.77;13.40;;;;;;;11.88;57.70;93606.16;5067285;28;20504;-81
2021/12/05 15:12:16;;;;;;;14.57;13.07;;;;;;;11.83;58.19;93609.44;5064836;28;20451;-81
2021/12/05 15:14:43;;;;;;;17.40;13.67;;;;;;;11.94;58.00;93610.50;5066295;28;20433;-82
2021/12/05 15:17:14;;;;;;;17.13;14.60;;;;;;;12.20;57.58;93600.56;5065079;28;20419;-80
2021/12/05 15:19:51;;;;;;;18.20;15.00;;;;;;;11.78;58.05;93617.22;5083109;28;21060;-76
2021/12/05 15:22:16;;;;;;;18.23;13.53;;;;;;;11.94;57.90;93612.34;5080660;28;20995;-76
2021/12/05 15:24:50;;;;;;;13.90;12.27;;;;;;;11.74;59.13;93618.66;5082923;28;20415;-77
2021/12/05 15:27:19;;;;;;;20.80;15.80;;;;;;;11.93;57.83;93626.47;5081503;28;20196;-76
2021/12/05 15:29:48;;;;;;;19.30;15.33;;;;;;;11.64;58.81;93621.06;5082623;28;20416;-77
2021/12/05 15:32:16;;;;;;;23.80;16.40;;;;;;;11.67;58.51;93615.38;5082925;28;20487;-77
2021/12/05 15:34:42;;;;;;;21.00;14.70;;;;;;;11.71;58.44;93606.03;5082812;28;20431;-77
2021/12/05 15:37:11;;;;;;;16.70;13.67;;;;;;;11.74;57.93;93618.66;5087702;28;20428;-78
2021/12/05 15:39:42;;;;;;;17.40;13.80;;;;;;;11.55;58.94;93625.03;5085561;28;20170;-76
2021/12/05 15:42:28;;;;;;;17.70;12.80;;;;;;;11.67;58.88;93620.63;5084403;28;20507;-77
2021/12/05 15:44:56;;;;;;;21.77;14.10;;;;;;;11.26;59.68;93645.81;5105008;28;20407;-76
2021/12/05 15:47:28;;;;;;;22.70;15.80;;;;;;;11.37;59.02;93633.78;5103212;28;20411;-77
2021/12/05 15:50:00;;;;;;;19.00;14.47;;;;;;;11.24;59.12;93650.47;5106177;28;20487;-76
2021/12/05 15:52:32;;;;;;;18.00;14.27;;;;;;;11.04;59.91;93648.09;5105452;28;20384;-76
2021/12/05 15:54:59;;;;;;;19.63;14.83;;;;;;;10.94;60.01;93657.28;5107431;28;20380;-77
2021/12/05 15:57:35;;;;;;;20.93;15.57;;;;;;;11.01;59.39;93654.59;5108771;28;20426;-77
2021/12/05 16:00:06;;;;;;;20.47;13.77;;;;;;;11.04;59.86;93654.16;5108833;28;20384;-77
2021/12/05 16:02:32;;;;;;;20.63;14.40;;;;;;;10.90;59.88;93663.19;5106408;28;20412;-77
2021/12/05 16:04:58;;;;;;;19.10;15.07;;;;;;;10.85;60.40;93661.25;5107099;28;20898;-77
2021/12/05 16:07:29;;;;;;;18.57;14.67;;;;;;;10.73;60.93;93670.84;5107506;28;20170;-77
2021/12/05 16:10:13;;;;;;;22.13;16.23;;;;;;;10.80;60.52;93673.41;5106326;28;20184;-77
2021/12/05 16:12:41;;;;;;;24.73;15.33;;;;;;;10.72;60.74;93669.25;5106707;28;20414;-77
2021/12/05 16:15:07;;;;;;;21.97;16.87;;;;;;;10.63;60.77;93663.50;5108233;28;20414;-77
2021/12/05 16:17:33;;;;;;;19.17;15.10;;;;;;;10.70;60.53;93664.25;5104690;28;20391;-76
2021/12/05 16:20:13;;;;;;;21.67;14.77;;;;;;;10.94;60.10;93674.81;5104486;28;20394;-76
2021/12/05 16:23:17;;;;;;;24.53;16.80;;;;;;;10.70;60.82;93666.06;5105873;28;20587;-76
2021/12/05 16:25:44;;;;;;;19.90;16.30;;;;;;;10.27;62.61;93669.50;5105425;28;20387;-76
2021/12/05 16:28:12;;;;;;;23.90;16.00;;;;;;;10.56;60.99;93670.63;5106468;28;20452;-76
2021/12/05 16:30:47;;;;;;;24.70;17.93;;;;;;;10.46;61.19;93673.75;5094541;28;20404;-77
2021/12/05 16:33:16;;;;;;;24.73;17.83;;;;;;;10.37;61.78;93674.25;5092125;28;20415;-76
2021/12/05 16:35:51;;;;;;;21.60;16.03;;;;;;;10.80;60.95;93668.16;5092446;28;20400;-77
2021/12/05 16:38:27;;;;;;;24.70;18.33;;;;;;;10.61;60.84;93675.22;5091582;28;20430;-76
2021/12/05 16:41:11;;;;;;;24.27;16.60;;;;;;;10.50;61.70;93668.88;5092886;28;20456;-76
2021/12/05 16:43:44;;;;;;;30.90;26.37;;;;;;;10.10;62.92;93675.28;5092356;28;20423;-76
2021/12/05 16:46:24;;;;;;;39.27;32.57;;;;;;;10.18;63.14;93665.56;5091961;28;20748;-75
2021/12/05 16:48:50;;;;;;;42.43;35.67;;;;;;;9.99;63.71;93667.34;5092440;28;20488;-76
2021/12/05 16:51:17;;;;;;;40.93;31.60;;;;;;;9.72;64.29;93662.34;5090733;28;20404;-76
2021/12/05 16:53:47;;;;;;;31.77;26.10;;;;;;;10.01;63.85;93673.94;5092099;28;20424;-76
2021/12/05 16:56:33;;;;;;;31.03;23.90;;;;;;;10.12;63.06;93683.69;5088919;28;20416;-75
2021/12/05 16:59:09;;;;;;;37.17;27.73;;;;;;;9.94;64.10;93687.09;5092667;28;20417;-77
2021/12/05 17:01:35;;;;;;;43.30;32.77;;;;;;;10.22;63.09;93683.19;5095124;28;20399;-78
2021/12/05 17:04:00;;;;;;;52.70;40.93;;;;;;;9.44;65.43;93681.81;5094956;28;20416;-77
2021/12/05 17:06:26;;;;;;;47.80;37.03;;;;;;;9.97;64.03;93681.41;5094029;28;20601;-77
2021/12/05 17:08:52;;;;;;;52.43;33.97;;;;;;;10.01;63.56;93691.44;5092562;28;20247;-77
2021/12/05 17:11:21;;;;;;;61.47;40.00;;;;;;;9.80;64.20;93696.03;5094438;28;20166;-77
2021/12/05 17:13:50;;;;;;;54.17;38.40;;;;;;;9.93;64.32;93698.53;5093770;28;20424;-77
2021/12/05 17:16:23;;;;;;;59.47;41.83;;;;;;;9.67;64.54;93688.28;5092437;28;20404;-76
2021/12/05 17:19:06;;;;;;;50.80;37.03;;;;;;;9.09;65.73;93681.44;5090938;28;20618;-78